MSP weather

Minneapolis-St Paul International/Wold-Chamberlain Airport
Minneapolis, Minnesota, United States

Public forecast

Using degrees Fahrenheit for public forecast. Weather courtesy of forecast.io.

Current aviation weather report (METAR) for Minneapolis-St Paul International/Wold-Chamberlain Airport

Retrieved 2020/08/05 17:53 UTC (1 hour ago):

KMSP 051753Z 26006KT 10SM FEW045 FEW055 BKN075 BKN250 23/13 A3005 RMK AO2 SLP174 T02330133 10244 20161 58006

Aviation forecast (TAF) for Minneapolis-St Paul International/Wold-Chamberlain Airport

Retrieved 2020/08/05 18:36 UTC (18 minutes ago):

TAF KMSP 051735Z 0518/0624 20009KT P6SM SCT050 BKN150 FM060200 14006KT P6SM BKN050 FM061400 16010KT P6SM SCT025 BKN050